createdAt,value
2022-10-10T00:02:23.418Z,17.20
2022-10-10T00:07:25.684Z,13.70
2022-10-10T00:12:27.952Z,18.02
2022-10-10T00:17:30.256Z,17.77
2022-10-10T00:22:32.833Z,18.58
2022-10-10T00:27:35.137Z,21.77
2022-10-10T00:32:37.518Z,18.52
2022-10-10T00:37:39.750Z,22.50
2022-10-10T00:42:42.003Z,19.42
2022-10-10T00:47:44.245Z,18.48
2022-10-10T00:52:46.727Z,18.25
2022-10-10T00:57:49.791Z,21.83
2022-10-10T01:02:52.537Z,24.15
2022-10-10T01:07:55.926Z,16.43
2022-10-10T01:13:16.397Z,19.95
2022-10-10T01:18:33.493Z,18.42
2022-10-10T01:24:00.423Z,20.35
2022-10-10T01:29:10.569Z,16.17
2022-10-10T01:34:28.323Z,16.35
2022-10-10T01:39:41.775Z,14.65
2022-10-10T01:44:45.813Z,23.30
2022-10-10T01:49:50.036Z,18.73
2022-10-10T01:55:15.770Z,18.02
2022-10-10T02:00:18.751Z,16.23
2022-10-10T02:05:43.959Z,16.80
2022-10-10T02:10:49.380Z,19.83
2022-10-10T02:15:54.164Z,15.75
2022-10-10T02:20:56.533Z,15.05
2022-10-10T02:25:59.182Z,13.38
2022-10-10T02:31:06.292Z,13.77
2022-10-10T02:36:08.615Z,16.70
2022-10-10T02:41:14.107Z,13.55
2022-10-10T02:46:16.839Z,15.70
2022-10-10T02:51:19.562Z,14.90
2022-10-10T02:56:21.791Z,13.52
2022-10-10T03:01:24.287Z,13.68
2022-10-10T03:06:26.591Z,14.52
2022-10-10T03:11:28.761Z,13.32
2022-10-10T03:16:31.291Z,14.18
2022-10-10T03:21:33.651Z,14.02
2022-10-10T03:26:36.028Z,15.68
2022-10-10T03:31:38.606Z,16.80
2022-10-10T03:36:41.334Z,15.60
2022-10-10T03:41:43.614Z,14.95
2022-10-10T03:46:45.891Z,17.23
2022-10-10T03:51:48.445Z,12.55
2022-10-10T03:56:50.713Z,15.85
2022-10-10T04:01:53.964Z,12.02
2022-10-10T04:06:56.179Z,13.82
2022-10-10T04:11:59.652Z,11.95
2022-10-10T04:17:04.201Z,15.02
2022-10-10T04:22:10.787Z,12.55
2022-10-10T04:27:14.112Z,10.65
2022-10-10T04:32:16.400Z,11.05
2022-10-10T04:37:18.665Z,12.98
2022-10-10T04:42:20.930Z,13.55
2022-10-10T04:47:23.337Z,13.25
2022-10-10T04:52:25.616Z,15.45
2022-10-10T04:57:27.823Z,13.57
2022-10-10T05:02:30.385Z,16.17
2022-10-10T05:07:32.632Z,18.85
2022-10-10T05:12:34.949Z,16.90
2022-10-10T05:17:37.211Z,16.40
2022-10-10T05:22:39.553Z,16.80
2022-10-10T05:27:42.515Z,16.85
2022-10-10T05:32:44.893Z,15.47
2022-10-10T05:37:47.070Z,17.38
2022-10-10T05:42:49.612Z,18.35
2022-10-10T05:47:52.045Z,15.77
2022-10-10T05:52:54.513Z,15.18
2022-10-10T05:57:56.943Z,11.20
2022-10-10T06:02:59.421Z,13.20
2022-10-10T06:08:10.752Z,15.03
2022-10-10T06:13:20.330Z,16.17
2022-10-10T06:18:25.728Z,15.15
2022-10-10T06:23:29.126Z,18.27
2022-10-10T06:28:31.497Z,17.17
2022-10-10T06:33:34.684Z,10.95
2022-10-10T06:38:41.515Z,15.80
2022-10-10T06:43:43.820Z,12.07
2022-10-10T06:48:47.206Z,12.77
2022-10-10T06:53:49.775Z,12.93
2022-10-10T06:58:52.139Z,13.13
2022-10-10T07:03:54.375Z,14.35
2022-10-10T07:08:58.215Z,12.10
2022-10-10T07:14:00.434Z,13.43
2022-10-10T07:19:02.808Z,11.68
2022-10-10T07:24:05.211Z,10.87
2022-10-10T07:29:07.570Z,9.30
2022-10-10T07:34:09.855Z,13.23
2022-10-10T07:39:16.924Z,10.90
2022-10-10T07:44:19.895Z,13.85
2022-10-10T07:49:22.328Z,10.60
2022-10-10T07:54:24.546Z,10.30
2022-10-10T07:59:26.833Z,10.97
2022-10-10T08:04:29.129Z,9.48
2022-10-10T08:09:31.685Z,13.77
2022-10-10T08:14:33.838Z,12.02
2022-10-10T08:19:36.216Z,13.43
2022-10-10T08:24:38.448Z,14.25
2022-10-10T08:29:40.708Z,11.07
2022-10-10T08:34:43.593Z,9.70
2022-10-10T08:39:45.808Z,11.25
2022-10-10T08:44:54.267Z,9.82
2022-10-10T08:50:07.350Z,11.57
2022-10-10T08:55:21.853Z,10.07
2022-10-10T09:00:26.596Z,8.52
2022-10-10T09:05:35.449Z,11.10
2022-10-10T09:10:56.069Z,11.93
2022-10-10T09:16:01.524Z,11.55
2022-10-10T09:21:23.250Z,8.60
2022-10-10T09:26:28.562Z,10.13
2022-10-10T09:31:39.191Z,10.10
2022-10-10T09:36:41.827Z,9.13
2022-10-10T09:41:59.035Z,9.32
2022-10-10T09:47:01.440Z,8.98
2022-10-10T09:52:18.809Z,10.60
2022-10-10T09:57:23.237Z,10.00
2022-10-10T10:02:27.726Z,11.40
2022-10-10T10:07:32.372Z,9.90
2022-10-10T10:12:40.147Z,13.05
2022-10-10T10:17:43.071Z,10.63
2022-10-10T10:22:47.535Z,8.93
2022-10-10T10:27:50.061Z,9.38
2022-10-10T10:33:05.037Z,8.97
2022-10-10T10:38:22.516Z,9.77
2022-10-10T10:43:35.378Z,8.55
2022-10-10T10:48:58.579Z,10.93
2022-10-10T10:54:14.660Z,10.02
2022-10-10T11:00:21.848Z,9.70
2022-10-10T11:05:18.961Z,8.45
2022-10-10T11:10:27.316Z,8.25
2022-10-10T11:16:06.107Z,10.07
2022-10-10T11:21:06.704Z,9.55
2022-10-10T11:26:16.938Z,8.13
2022-10-10T11:31:30.585Z,9.57
2022-10-10T11:41:41.455Z,8.68
2022-10-10T11:46:49.292Z,8.05
2022-10-10T11:52:09.526Z,8.05
2022-10-10T11:57:21.973Z,6.88
2022-10-10T12:02:32.440Z,8.43
2022-10-10T12:07:47.651Z,10.13
2022-10-10T12:12:54.050Z,8.95
2022-10-10T12:17:57.074Z,7.70
2022-10-10T12:23:29.590Z,9.70
2022-10-10T12:28:37.966Z,13.13
2022-10-10T12:33:42.403Z,9.98
2022-10-10T12:44:23.273Z,7.63
2022-10-10T12:49:26.454Z,11.52
2022-10-10T12:54:38.371Z,9.48
2022-10-10T12:59:41.891Z,9.73
2022-10-10T13:04:45.723Z,10.20
2022-10-10T13:09:50.141Z,13.88
2022-10-10T13:14:52.696Z,9.60
2022-10-10T13:19:57.273Z,10.60
2022-10-10T13:25:00.755Z,10.50
2022-10-10T13:30:05.512Z,10.57
2022-10-10T13:35:14.715Z,10.45
2022-10-10T13:40:18.359Z,15.32
2022-10-10T13:45:30.275Z,8.77
2022-10-10T13:50:43.972Z,12.27
2022-10-10T13:55:46.280Z,11.80
2022-10-10T14:00:58.070Z,9.32
2022-10-10T14:06:00.589Z,11.20
2022-10-10T14:11:08.490Z,16.40
2022-10-10T14:16:16.962Z,15.32
2022-10-10T14:21:20.189Z,15.98
2022-10-10T14:26:22.554Z,11.32
2022-10-10T14:31:28.894Z,10.83
2022-10-10T14:36:31.317Z,12.70
2022-10-10T14:41:34.249Z,12.90
2022-10-10T14:46:37.182Z,13.20
2022-10-10T14:51:39.524Z,12.88
2022-10-10T14:57:08.337Z,15.63
2022-10-10T15:02:06.166Z,15.57
2022-10-10T15:07:13.788Z,17.55
2022-10-10T15:12:16.493Z,17.58
2022-10-10T15:17:19.029Z,21.23
2022-10-10T15:22:21.549Z,29.87
2022-10-10T15:27:24.331Z,23.80
2022-10-10T15:32:27.019Z,18.45
2022-10-10T15:37:29.537Z,21.30
2022-10-10T15:42:35.410Z,26.00
2022-10-10T15:47:46.270Z,22.23
2022-10-10T15:52:49.334Z,21.52
2022-10-10T15:57:51.548Z,20.33
2022-10-10T16:02:55.432Z,22.77
2022-10-10T16:07:57.661Z,22.17
2022-10-10T16:12:59.970Z,23.83
2022-10-10T16:18:05.154Z,24.02
2022-10-10T16:23:08.423Z,28.33
2022-10-10T16:28:10.859Z,27.40
2022-10-10T16:33:13.234Z,30.40
2022-10-10T16:38:16.116Z,25.55
2022-10-10T16:43:18.692Z,23.58
2022-10-10T16:48:22.588Z,22.37
2022-10-10T16:53:24.931Z,20.33
2022-10-10T16:58:27.945Z,20.60
2022-10-10T17:03:30.501Z,22.52
2022-10-10T17:08:33.289Z,20.40
2022-10-10T17:13:37.498Z,18.77
2022-10-10T17:18:44.678Z,25.40
2022-10-10T17:23:47.730Z,21.77
2022-10-10T17:28:53.437Z,19.17
2022-10-10T17:33:57.413Z,20.27
2022-10-10T17:39:02.574Z,24.92
2022-10-10T17:44:05.974Z,23.60
2022-10-10T17:49:14.430Z,29.08
2022-10-10T17:54:19.431Z,28.02
2022-10-10T17:59:21.748Z,32.97
2022-10-10T18:04:24.063Z,47.22
2022-10-10T18:09:26.368Z,49.08
2022-10-10T18:14:28.859Z,49.88
2022-10-10T18:19:31.629Z,43.47
2022-10-10T18:24:33.965Z,41.80
2022-10-10T18:29:36.523Z,46.72
2022-10-10T18:34:43.842Z,43.90
2022-10-10T18:40:24.383Z,45.65
2022-10-10T18:45:31.911Z,41.88
2022-10-10T18:57:10.381Z,40.05
2022-10-10T19:02:13.598Z,33.58
2022-10-10T19:07:16.162Z,38.90
2022-10-10T19:12:28.807Z,45.37
2022-10-10T19:18:03.160Z,57.22
2022-10-10T19:28:17.883Z,45.97
2022-10-10T19:33:20.854Z,44.95
2022-10-10T19:38:23.516Z,51.90
2022-10-10T19:43:26.132Z,46.55
2022-10-10T19:48:29.841Z,41.70
2022-10-10T19:53:33.699Z,37.85
2022-10-10T19:58:37.195Z,33.33
2022-10-10T20:03:43.549Z,36.55
2022-10-10T20:08:46.318Z,39.78
2022-10-10T20:13:51.902Z,39.43
2022-10-10T20:18:56.906Z,54.67
2022-10-10T20:24:06.190Z,54.95
2022-10-10T20:29:08.807Z,44.47
2022-10-10T20:34:11.060Z,38.28
2022-10-10T20:39:13.998Z,33.92
2022-10-10T20:44:16.277Z,33.83
2022-10-10T20:49:21.241Z,42.28
2022-10-10T20:54:24.139Z,53.35
2022-10-10T20:59:26.345Z,64.63
2022-10-10T21:04:29.534Z,91.82
2022-10-10T21:09:32.906Z,137.10
2022-10-10T21:14:37.477Z,160.43
2022-10-10T21:19:40.159Z,154.10
2022-10-10T21:24:43.105Z,135.85
2022-10-10T21:29:45.295Z,114.75
2022-10-10T21:34:47.494Z,99.18
2022-10-10T21:39:49.816Z,86.13
2022-10-10T21:44:52.160Z,58.97
2022-10-10T21:49:54.434Z,42.03
2022-10-10T21:54:56.741Z,34.03
2022-10-10T21:59:58.972Z,21.80
2022-10-10T22:05:02.567Z,16.02
2022-10-10T22:15:09.172Z,26.40
2022-10-10T22:20:12.401Z,20.70
2022-10-10T22:25:18.152Z,15.98
2022-10-10T22:30:20.468Z,15.95
2022-10-10T22:35:22.685Z,15.77
2022-10-10T22:40:26.197Z,15.40
2022-10-10T22:45:29.450Z,17.58
2022-10-10T22:55:34.570Z,23.40
2022-10-10T23:00:37.040Z,18.45
2022-10-10T23:05:39.345Z,16.65
2022-10-10T23:10:41.732Z,16.05
2022-10-10T23:15:44.033Z,10.48
2022-10-10T23:20:47.646Z,10.95
2022-10-10T23:25:51.149Z,12.10
2022-10-10T23:30:53.477Z,15.30
2022-10-10T23:35:59.941Z,13.18
2022-10-10T23:41:02.432Z,9.13
2022-10-10T23:46:05.302Z,10.98
2022-10-10T23:51:07.951Z,11.63
2022-10-10T23:56:12.082Z,9.77
